createdAt,value
2018-05-23T00:01:28.756Z,95494.82
2018-05-23T00:03:55.392Z,95489.77
2018-05-23T00:06:22.042Z,95491.56
2018-05-23T00:08:48.693Z,95491.30
2018-05-23T00:11:15.380Z,95500.41
2018-05-23T00:13:42.018Z,95487.01
2018-05-23T00:16:08.705Z,95485.23
2018-05-23T00:18:35.376Z,95483.34
2018-05-23T00:21:02.053Z,95486.14
2018-05-23T00:23:28.668Z,95484.13
2018-05-23T00:25:55.298Z,95486.27
2018-05-23T00:28:21.991Z,95480.00
2018-05-23T00:30:48.624Z,95488.34
2018-05-23T00:33:15.305Z,95485.81
2018-05-23T00:35:41.991Z,95493.78
2018-05-23T00:38:08.626Z,95500.98
2018-05-23T00:40:35.262Z,95502.97
2018-05-23T00:43:01.904Z,95492.64
2018-05-23T00:45:28.547Z,95491.75
2018-05-23T00:47:55.237Z,95491.25
2018-05-23T00:50:21.974Z,95496.07
2018-05-23T00:52:48.525Z,95494.33
2018-05-23T00:55:15.262Z,95486.37
2018-05-23T00:57:41.908Z,95494.05
2018-05-23T01:00:08.538Z,95488.39
2018-05-23T01:02:35.187Z,95494.70
2018-05-23T01:05:01.835Z,95497.11
2018-05-23T01:07:28.475Z,95492.20
2018-05-23T01:09:55.117Z,95501.02
2018-05-23T01:12:21.797Z,95496.63
2018-05-23T01:14:48.430Z,95492.70
2018-05-23T01:17:15.110Z,95489.06
2018-05-23T01:19:41.741Z,95486.28
2018-05-23T01:22:08.434Z,95480.84
2018-05-23T01:24:35.074Z,95475.92
2018-05-23T01:27:01.946Z,95470.99
2018-05-23T01:29:28.576Z,95468.47
2018-05-23T01:31:55.213Z,95472.00
2018-05-23T01:34:21.857Z,95473.16
2018-05-23T01:36:48.496Z,95475.06
2018-05-23T01:39:15.129Z,95475.44
2018-05-23T01:41:41.770Z,95473.19
2018-05-23T01:44:08.402Z,95480.74
2018-05-23T01:46:35.090Z,95470.28
2018-05-23T01:49:01.722Z,95470.41
2018-05-23T01:51:28.396Z,95473.42
2018-05-23T01:53:55.035Z,95478.11
2018-05-23T01:56:21.669Z,95479.15
2018-05-23T01:58:48.320Z,95481.64
2018-05-23T02:01:14.959Z,95477.12
2018-05-23T02:03:41.603Z,95479.54
2018-05-23T02:06:08.287Z,95474.88
2018-05-23T02:08:34.923Z,95478.53
2018-05-23T02:11:01.595Z,95487.27
2018-05-23T02:13:28.241Z,95475.88
2018-05-23T02:15:54.935Z,95479.03
2018-05-23T02:18:21.572Z,95478.30
2018-05-23T02:20:48.209Z,95478.67
2018-05-23T02:23:14.850Z,95476.91
2018-05-23T02:25:41.487Z,95478.20
2018-05-23T02:28:08.215Z,95479.20
2018-05-23T02:30:34.904Z,95474.25
2018-05-23T02:33:01.569Z,95468.95
2018-05-23T02:35:28.267Z,95463.66
2018-05-23T02:37:54.915Z,95472.00
2018-05-23T02:40:21.593Z,95473.77
2018-05-23T02:42:48.232Z,95473.03
2018-05-23T02:45:14.923Z,95477.95
2018-05-23T02:47:41.589Z,95472.91
2018-05-23T02:50:08.232Z,95476.57
2018-05-23T02:52:34.861Z,95474.67
2018-05-23T02:55:01.503Z,95470.41
2018-05-23T02:57:28.188Z,95468.89
2018-05-23T02:59:54.822Z,95468.13
2018-05-23T03:02:21.499Z,95467.61
2018-05-23T03:04:48.142Z,95459.03
2018-05-23T03:07:14.783Z,95466.51
2018-05-23T03:09:41.446Z,95471.94
2018-05-23T03:12:08.091Z,95469.94
2018-05-23T03:14:34.731Z,95469.86
2018-05-23T03:17:01.464Z,95471.55
2018-05-23T03:19:28.062Z,95471.08
2018-05-23T03:21:54.763Z,95476.63
2018-05-23T03:24:21.397Z,95478.91
2018-05-23T03:26:48.032Z,95480.16
2018-05-23T03:29:14.736Z,95474.59
2018-05-23T03:31:41.372Z,95472.33
2018-05-23T03:34:11.390Z,95473.61
2018-05-23T03:36:38.041Z,95474.62
2018-05-23T03:39:04.726Z,95480.28
2018-05-23T03:41:31.413Z,95481.42
2018-05-23T03:43:58.044Z,95484.70
2018-05-23T03:46:24.679Z,95492.53
2018-05-23T03:48:51.322Z,95501.34
2018-05-23T03:51:18.003Z,95501.46
2018-05-23T03:53:44.786Z,95500.33
2018-05-23T03:56:11.422Z,95496.41
2018-05-23T03:58:38.063Z,95494.41
2018-05-23T04:01:04.746Z,95500.59
2018-05-23T04:03:31.365Z,95506.63
2018-05-23T04:05:58.039Z,95517.55
2018-05-23T04:08:24.690Z,95513.91
2018-05-23T04:10:51.330Z,95512.76
2018-05-23T04:13:18.018Z,95516.13
2018-05-23T04:15:44.659Z,95512.31
2018-05-23T04:18:11.329Z,95527.80
2018-05-23T04:20:37.931Z,95522.52
2018-05-23T04:23:04.591Z,95517.95
2018-05-23T04:25:31.281Z,95510.20
2018-05-23T04:27:57.914Z,95513.67
2018-05-23T04:30:24.627Z,95511.72
2018-05-23T04:32:51.274Z,95516.78
2018-05-23T04:35:17.909Z,95520.07
2018-05-23T04:37:44.547Z,95523.44
2018-05-23T04:40:11.189Z,95516.31
2018-05-23T04:42:37.828Z,95511.93
2018-05-23T04:45:04.598Z,95513.74
2018-05-23T04:47:31.202Z,95507.86
2018-05-23T04:49:57.837Z,95509.31
2018-05-23T04:52:24.488Z,95512.42
2018-05-23T04:54:51.127Z,95515.52
2018-05-23T04:57:17.754Z,95514.69
2018-05-23T04:59:44.497Z,95512.76
2018-05-23T05:02:11.130Z,95510.44
2018-05-23T05:04:37.771Z,95509.86
2018-05-23T05:07:04.450Z,95509.91
2018-05-23T05:09:31.164Z,95513.08
2018-05-23T05:11:57.803Z,95514.91
2018-05-23T05:14:24.454Z,95518.84
2018-05-23T05:16:51.159Z,95520.55
2018-05-23T05:19:17.760Z,95517.34
2018-05-23T05:21:44.408Z,95519.20
2018-05-23T05:24:11.093Z,95518.46
2018-05-23T05:26:37.698Z,95528.01
2018-05-23T05:29:04.404Z,95531.98
2018-05-23T05:31:31.105Z,95526.69
2018-05-23T05:33:57.730Z,95527.87
2018-05-23T05:36:24.369Z,95533.81
2018-05-23T05:38:51.100Z,95526.06
2018-05-23T05:41:17.663Z,95526.80
2018-05-23T05:43:44.355Z,95523.36
2018-05-23T05:46:11.001Z,95522.50
2018-05-23T05:48:37.643Z,95524.24
2018-05-23T05:51:04.340Z,95529.69
2018-05-23T05:53:30.986Z,95530.34
2018-05-23T05:56:00.890Z,95537.72
2018-05-23T05:58:27.498Z,95538.67
2018-05-23T06:00:54.134Z,95540.53
2018-05-23T06:03:20.823Z,95547.81
2018-05-23T06:05:47.471Z,95543.13
2018-05-23T06:08:14.151Z,95539.39
2018-05-23T06:10:40.785Z,95546.80
2018-05-23T06:13:07.423Z,95543.13
2018-05-23T06:15:34.079Z,95543.72
2018-05-23T06:18:00.767Z,95546.54
2018-05-23T06:20:27.399Z,95551.00
2018-05-23T06:22:54.459Z,95547.43
2018-05-23T06:25:21.058Z,95546.85
2018-05-23T06:27:47.755Z,95540.09
2018-05-23T06:30:14.479Z,95538.45
2018-05-23T06:32:41.073Z,95545.93
2018-05-23T06:35:07.738Z,95536.91
2018-05-23T06:37:34.404Z,95539.15
2018-05-23T06:40:01.042Z,95533.00
2018-05-23T06:42:27.693Z,95532.88
2018-05-23T06:44:54.402Z,95532.55
2018-05-23T06:47:21.060Z,95526.59
2018-05-23T06:49:47.753Z,95529.13
2018-05-23T06:52:14.395Z,95527.87
2018-05-23T06:54:41.059Z,95523.98
2018-05-23T06:57:07.698Z,95526.22
2018-05-23T06:59:34.344Z,95522.71
2018-05-23T07:02:00.978Z,95521.95
2018-05-23T07:04:27.674Z,95518.31
2018-05-23T07:06:54.318Z,95519.13
2018-05-23T07:09:21.033Z,95520.52
2018-05-23T07:11:47.641Z,95521.45
2018-05-23T07:14:14.366Z,95515.70
2018-05-23T07:16:41.013Z,95518.83
2018-05-23T07:19:07.705Z,95512.06
2018-05-23T07:21:34.379Z,95513.47
2018-05-23T07:24:01.081Z,95514.89
2018-05-23T07:26:27.662Z,95508.80
2018-05-23T07:28:54.342Z,95503.42
2018-05-23T07:31:21.011Z,95500.78
2018-05-23T07:33:47.740Z,95504.80
2018-05-23T07:36:14.441Z,95498.21
2018-05-23T07:38:41.126Z,95497.42
2018-05-23T07:41:07.794Z,95498.43
2018-05-23T07:43:34.437Z,95499.75
2018-05-23T07:46:01.093Z,95498.06
2018-05-23T07:48:27.721Z,95494.81
2018-05-23T07:50:54.406Z,95494.38
2018-05-23T07:53:21.069Z,95492.19
2018-05-23T07:55:47.755Z,95489.23
2018-05-23T07:58:14.779Z,95495.19
2018-05-23T08:00:41.454Z,95495.81
2018-05-23T08:03:08.104Z,95486.78
2018-05-23T08:05:35.037Z,95485.10
2018-05-23T08:08:01.715Z,95486.61
2018-05-23T08:10:28.361Z,95471.11
2018-05-23T08:12:55.055Z,95482.05
2018-05-23T08:15:21.691Z,95482.02
2018-05-23T08:17:48.398Z,95479.42
2018-05-23T08:20:15.050Z,95476.75
2018-05-23T08:22:43.922Z,95479.17
2018-05-23T08:25:10.654Z,95482.38
2018-05-23T08:27:37.291Z,95480.61
2018-05-23T08:30:03.943Z,95475.89
2018-05-23T08:32:30.584Z,95469.59
2018-05-23T08:34:57.728Z,95466.68
2018-05-23T08:37:24.368Z,95467.87
2018-05-23T08:39:51.054Z,95472.40
2018-05-23T08:42:17.686Z,95473.06
2018-05-23T08:44:44.320Z,95470.10
2018-05-23T08:47:11.035Z,95474.23
2018-05-23T08:49:37.710Z,95472.29
2018-05-23T08:52:04.353Z,95470.44
2018-05-23T08:54:30.999Z,95468.07
2018-05-23T08:56:57.633Z,95460.56
2018-05-23T08:59:24.248Z,95458.52
2018-05-23T09:01:50.937Z,95462.67
2018-05-23T09:04:17.571Z,95463.63
2018-05-23T09:06:44.205Z,95449.25
2018-05-23T09:09:10.849Z,95453.06
2018-05-23T09:11:37.534Z,95449.83
2018-05-23T09:14:04.181Z,95443.77
2018-05-23T09:16:30.860Z,95447.57
2018-05-23T09:18:57.563Z,95443.73
2018-05-23T09:21:24.210Z,95448.86
2018-05-23T09:23:50.882Z,95447.27
2018-05-23T09:26:17.564Z,95449.64
2018-05-23T09:28:44.163Z,95438.19
2018-05-23T09:31:10.819Z,95434.61
2018-05-23T09:33:37.487Z,95432.41
2018-05-23T09:36:04.165Z,95424.44
2018-05-23T09:38:30.806Z,95428.22
2018-05-23T09:40:57.494Z,95423.51
2018-05-23T09:43:24.127Z,95419.23
2018-05-23T09:45:50.774Z,95417.89
2018-05-23T09:48:17.453Z,95404.37
2018-05-23T09:50:44.255Z,95407.29
2018-05-23T09:53:10.909Z,95404.67
2018-05-23T09:55:37.551Z,95402.88
2018-05-23T09:58:04.191Z,95403.80
2018-05-23T10:00:30.842Z,95410.39
2018-05-23T10:02:57.655Z,95406.66
2018-05-23T10:05:24.241Z,95400.78
2018-05-23T10:07:50.890Z,95401.12
2018-05-23T10:10:17.588Z,95395.77
2018-05-23T10:12:44.248Z,95402.75
2018-05-23T10:15:10.906Z,95396.39
2018-05-23T10:17:37.560Z,95391.80
2018-05-23T10:20:04.251Z,95387.13
2018-05-23T10:22:32.064Z,95382.36
2018-05-23T10:24:58.715Z,95376.28
2018-05-23T10:27:25.396Z,95378.00
2018-05-23T10:29:52.035Z,95372.36
2018-05-23T10:32:18.694Z,95368.98
2018-05-23T10:34:45.384Z,95370.30
2018-05-23T10:37:12.026Z,95363.67
2018-05-23T10:39:38.673Z,95364.45
2018-05-23T10:42:05.313Z,95356.88
2018-05-23T10:44:32.039Z,95343.59
2018-05-23T10:46:58.691Z,95346.27
2018-05-23T10:49:25.366Z,95350.70
2018-05-23T10:51:52.141Z,95346.07
2018-05-23T10:54:18.789Z,95336.20
2018-05-23T10:56:45.509Z,95332.70
2018-05-23T10:59:12.126Z,95328.59
2018-05-23T11:01:38.763Z,95331.14
2018-05-23T11:04:05.411Z,95320.92
2018-05-23T11:06:32.075Z,95325.52
2018-05-23T11:08:58.849Z,95323.73
2018-05-23T11:11:25.477Z,95324.02
2018-05-23T11:13:52.114Z,95321.86
2018-05-23T11:16:18.761Z,95314.79
2018-05-23T11:18:45.475Z,95307.70
2018-05-23T11:21:12.188Z,95310.10
2018-05-23T11:23:38.819Z,95299.10
2018-05-23T11:26:05.453Z,95305.30
2018-05-23T11:28:32.163Z,95303.77
2018-05-23T11:30:58.847Z,95297.40
2018-05-23T11:33:25.453Z,95296.66
2018-05-23T11:35:52.154Z,95292.81
2018-05-23T11:38:18.792Z,95288.09
2018-05-23T11:40:45.434Z,95281.31
2018-05-23T11:43:12.118Z,95278.56
2018-05-23T11:45:39.063Z,95279.05
2018-05-23T11:48:06.128Z,95280.73
2018-05-23T11:50:32.751Z,95274.02
2018-05-23T11:52:59.421Z,95276.88
2018-05-23T11:55:26.261Z,95270.17
2018-05-23T11:57:52.940Z,95268.91
2018-05-23T12:00:19.628Z,95262.20
2018-05-23T12:02:46.310Z,95259.02
2018-05-23T12:05:13.001Z,95255.56
2018-05-23T12:07:40.045Z,95258.27
2018-05-23T12:10:06.683Z,95257.56
2018-05-23T12:12:33.328Z,95257.55
2018-05-23T12:15:00.077Z,95252.55
2018-05-23T12:17:26.727Z,95245.33
2018-05-23T12:19:53.482Z,95246.72
2018-05-23T12:22:20.237Z,95240.61
2018-05-23T12:24:46.850Z,95236.53
2018-05-23T12:27:13.490Z,95242.58
2018-05-23T12:29:40.134Z,95242.98
2018-05-23T12:32:06.791Z,95242.58
2018-05-23T12:34:33.436Z,95236.80
2018-05-23T12:37:00.077Z,95233.08
2018-05-23T12:39:26.793Z,95228.69
2018-05-23T12:41:53.487Z,95217.55
2018-05-23T12:44:22.770Z,95230.67
2018-05-23T12:46:52.028Z,95228.13
2018-05-23T12:49:18.681Z,95216.92
2018-05-23T12:51:45.381Z,95218.83
2018-05-23T12:54:12.037Z,95213.79
2018-05-23T12:56:38.732Z,95210.84
2018-05-23T12:59:05.431Z,95215.02
2018-05-23T13:01:32.116Z,95220.77
2018-05-23T13:04:01.256Z,95215.37
2018-05-23T13:06:27.894Z,95213.63
2018-05-23T13:08:54.546Z,95206.40
2018-05-23T13:11:21.191Z,95207.42
2018-05-23T13:13:47.839Z,95211.00
2018-05-23T13:16:14.490Z,95202.67
2018-05-23T13:18:41.212Z,95206.52
2018-05-23T13:21:10.259Z,95205.25
2018-05-23T13:23:36.899Z,95202.86
2018-05-23T13:26:03.575Z,95198.16
2018-05-23T13:28:30.236Z,95204.38
2018-05-23T13:30:56.931Z,95203.66
2018-05-23T13:33:23.542Z,95203.59
2018-05-23T13:35:50.226Z,95209.98
2018-05-23T13:38:16.884Z,95210.17
2018-05-23T13:40:43.520Z,95204.82
2018-05-23T13:43:10.215Z,95202.58
2018-05-23T13:45:36.904Z,95202.74
2018-05-23T13:48:03.528Z,95196.34
2018-05-23T13:50:30.201Z,95205.77
2018-05-23T13:52:56.847Z,95206.92
2018-05-23T13:55:23.487Z,95203.52
2018-05-23T13:57:50.233Z,95208.48
2018-05-23T14:00:16.965Z,95207.08
2018-05-23T14:02:43.682Z,95204.20
2018-05-23T14:05:10.371Z,95205.91
2018-05-23T14:07:36.974Z,95209.56
2018-05-23T14:10:03.634Z,95215.98
2018-05-23T14:12:30.317Z,95225.95
2018-05-23T14:14:56.969Z,95226.34
2018-05-23T14:17:23.644Z,95223.70
2018-05-23T14:19:50.283Z,95228.38
2018-05-23T14:22:16.953Z,95223.70
2018-05-23T14:24:43.580Z,95218.98
2018-05-23T14:27:10.273Z,95215.20
2018-05-23T14:29:36.921Z,95211.83
2018-05-23T14:32:03.641Z,95208.09
2018-05-23T14:34:30.247Z,95204.02
2018-05-23T14:36:56.869Z,95195.44
2018-05-23T14:39:23.516Z,95195.64
2018-05-23T14:41:50.166Z,95210.56
2018-05-23T14:44:16.806Z,95214.62
2018-05-23T14:46:43.460Z,95213.70
2018-05-23T14:49:10.154Z,95214.66
2018-05-23T14:51:36.881Z,95223.04
2018-05-23T14:54:03.567Z,95219.50
2018-05-23T14:56:30.250Z,95219.83
2018-05-23T14:58:56.895Z,95221.14
2018-05-23T15:01:23.510Z,95224.03
2018-05-23T15:03:50.150Z,95229.56
2018-05-23T15:06:16.782Z,95232.72
2018-05-23T15:08:43.462Z,95234.41
2018-05-23T15:11:10.100Z,95240.84
2018-05-23T15:13:36.733Z,95248.65
2018-05-23T15:16:03.414Z,95244.47
2018-05-23T15:18:30.109Z,95249.42
2018-05-23T15:20:56.744Z,95251.34
2018-05-23T15:23:23.393Z,95249.77
2018-05-23T15:25:50.069Z,95249.97
2018-05-23T15:28:16.704Z,95259.63
2018-05-23T15:30:43.348Z,95253.37
2018-05-23T15:33:10.049Z,95260.53
2018-05-23T15:35:36.682Z,95253.44
2018-05-23T15:38:03.363Z,95246.80
2018-05-23T15:40:30.004Z,95248.95
2018-05-23T15:42:56.698Z,95252.05
2018-05-23T15:45:23.340Z,95250.34
2018-05-23T15:47:50.008Z,95244.51
2018-05-23T15:50:16.643Z,95237.30
2018-05-23T15:52:43.289Z,95246.30
2018-05-23T15:55:09.921Z,95241.18
2018-05-23T15:57:36.602Z,95241.82
2018-05-23T16:00:03.237Z,95236.95
2018-05-23T16:02:29.874Z,95230.00
2018-05-23T16:04:56.579Z,95224.88
2018-05-23T16:07:23.222Z,95230.14
2018-05-23T16:09:49.861Z,95225.50
2018-05-23T16:12:16.516Z,95228.16
2018-05-23T16:14:43.232Z,95222.45
2018-05-23T16:17:09.839Z,95223.09
2018-05-23T16:19:36.515Z,95221.58
2018-05-23T16:22:03.135Z,95229.99
2018-05-23T16:24:31.203Z,95220.50
2018-05-23T16:26:56.499Z,95222.77
2018-05-23T16:29:23.109Z,95225.27
2018-05-23T16:31:49.742Z,95221.63
2018-05-23T16:34:18.447Z,95223.80
2018-05-23T16:36:43.016Z,95228.11
2018-05-23T16:39:09.654Z,95235.56
2018-05-23T16:41:36.330Z,95233.99
2018-05-23T16:44:02.971Z,95244.07
2018-05-23T16:46:29.651Z,95247.09
2018-05-23T16:48:56.287Z,95246.27
2018-05-23T16:51:22.929Z,95249.64
2018-05-23T16:53:49.601Z,95246.39
2018-05-23T16:56:16.225Z,95243.86
2018-05-23T16:58:42.876Z,95239.42
2018-05-23T17:01:09.529Z,95239.83
2018-05-23T17:03:36.165Z,95234.11
2018-05-23T17:06:02.807Z,95229.69
2018-05-23T17:08:29.442Z,95222.47
2018-05-23T17:10:56.165Z,95222.84
2018-05-23T17:13:22.815Z,95213.98
2018-05-23T17:15:49.501Z,95204.49
2018-05-23T17:18:16.138Z,95191.95
2018-05-23T17:20:42.805Z,95176.50
2018-05-23T17:23:09.436Z,95166.34
2018-05-23T17:25:36.072Z,95167.65
2018-05-23T17:28:02.713Z,95172.96
2018-05-23T17:30:29.375Z,95160.68
2018-05-23T17:32:56.012Z,95162.95
2018-05-23T17:35:22.658Z,95160.59
2018-05-23T17:37:49.345Z,95157.31
2018-05-23T17:40:16.055Z,95149.85
2018-05-23T17:42:42.629Z,95152.23
2018-05-23T17:45:09.337Z,95143.38
2018-05-23T17:47:36.068Z,95145.59
2018-05-23T17:50:02.683Z,95143.49
2018-05-23T17:52:29.325Z,95137.11
2018-05-23T17:54:55.978Z,95129.70
2018-05-23T17:57:22.622Z,95132.03
2018-05-23T17:59:49.255Z,95121.89
2018-05-23T18:02:15.934Z,95124.19
2018-05-23T18:04:42.613Z,95116.96
2018-05-23T18:07:09.278Z,95116.84
2018-05-23T18:09:35.959Z,95118.73
2018-05-23T18:12:02.641Z,95109.23
2018-05-23T18:14:29.238Z,95112.34
2018-05-23T18:16:55.875Z,95108.37
2018-05-23T18:19:22.517Z,95117.75
2018-05-23T18:21:49.147Z,95120.33
2018-05-23T18:24:15.823Z,95120.77
2018-05-23T18:26:42.430Z,95126.92
2018-05-23T18:29:09.063Z,95128.89
2018-05-23T18:31:35.713Z,95133.50
2018-05-23T18:34:02.346Z,95134.14
2018-05-23T18:36:29.099Z,95133.13
2018-05-23T18:38:55.736Z,95135.73
2018-05-23T18:41:22.370Z,95133.61
2018-05-23T18:43:49.025Z,95139.07
2018-05-23T18:46:15.659Z,95143.89
2018-05-23T18:48:42.303Z,95141.62
2018-05-23T18:51:08.948Z,95141.91
2018-05-23T18:53:35.579Z,95142.05
2018-05-23T18:56:02.231Z,95144.63
2018-05-23T18:58:28.898Z,95146.28
2018-05-23T19:00:55.527Z,95150.52
2018-05-23T19:03:22.163Z,95152.17
2018-05-23T19:05:48.802Z,95155.97
2018-05-23T19:08:15.457Z,95159.83
2018-05-23T19:10:42.077Z,95163.83
2018-05-23T19:13:08.714Z,95163.45
2018-05-23T19:15:35.394Z,95170.21
2018-05-23T19:18:02.030Z,95177.31
2018-05-23T19:20:28.683Z,95182.38
2018-05-23T19:22:55.319Z,95183.81
2018-05-23T19:25:22.008Z,95191.24
2018-05-23T19:27:48.696Z,95193.44
2018-05-23T19:30:15.336Z,95196.48
2018-05-23T19:32:42.062Z,95199.77
2018-05-23T19:35:08.742Z,95209.66
2018-05-23T19:37:35.375Z,95205.77
2018-05-23T19:40:02.021Z,95210.63
2018-05-23T19:42:28.660Z,95216.03
2018-05-23T19:44:55.344Z,95215.59
2018-05-23T19:47:22.094Z,95221.91
2018-05-23T19:49:48.667Z,95220.02
2018-05-23T19:52:15.304Z,95219.17
2018-05-23T19:54:41.989Z,95223.35
2018-05-23T19:57:08.629Z,95226.52
2018-05-23T19:59:35.320Z,95221.25
2018-05-23T20:02:01.967Z,95217.59
2018-05-23T20:04:28.591Z,95218.34
2018-05-23T20:06:55.245Z,95218.34
2018-05-23T20:09:21.886Z,95223.97
2018-05-23T20:11:48.574Z,95223.25
2018-05-23T20:14:15.338Z,95228.56
2018-05-23T20:16:41.851Z,95225.78
2018-05-23T20:19:08.499Z,95227.95
2018-05-23T20:21:35.135Z,95226.60
2018-05-23T20:24:01.824Z,95226.72
2018-05-23T20:26:28.462Z,95221.79
2018-05-23T20:28:55.189Z,95229.91
2018-05-23T20:31:21.916Z,95225.09
2018-05-23T20:33:48.560Z,95229.55
2018-05-23T20:36:15.232Z,95225.48
2018-05-23T20:38:41.889Z,95231.48
2018-05-23T20:41:08.531Z,95234.78
2018-05-23T20:43:35.213Z,95236.80
2018-05-23T20:46:01.843Z,95232.54
2018-05-23T20:48:28.511Z,95233.81
2018-05-23T20:50:55.151Z,95236.05
2018-05-23T20:53:21.852Z,95235.08
2018-05-23T20:55:48.519Z,95233.56
2018-05-23T20:58:15.157Z,95237.66
2018-05-23T21:00:41.880Z,95239.00
2018-05-23T21:03:08.566Z,95232.46
2018-05-23T21:05:35.213Z,95232.77
2018-05-23T21:08:01.882Z,95237.95
2018-05-23T21:10:28.529Z,95232.91
2018-05-23T21:12:55.208Z,95229.73
2018-05-23T21:15:21.925Z,95222.31
2018-05-23T21:17:48.562Z,95226.20
2018-05-23T21:20:15.240Z,95227.13
2018-05-23T21:22:41.880Z,95222.83
2018-05-23T21:25:08.597Z,95228.27
2018-05-23T21:27:35.230Z,95229.92
2018-05-23T21:30:01.913Z,95220.60
2018-05-23T21:32:28.546Z,95217.94
2018-05-23T21:34:55.307Z,95228.44
2018-05-23T21:37:21.989Z,95223.27
2018-05-23T21:39:48.635Z,95220.13
2018-05-23T21:42:15.272Z,95212.30
2018-05-23T21:44:41.913Z,95216.47
2018-05-23T21:47:08.550Z,95209.52
2018-05-23T21:49:36.358Z,95207.91
2018-05-23T21:52:02.995Z,95199.66
2018-05-23T21:54:29.677Z,95202.73
2018-05-23T21:56:56.308Z,95200.22
2018-05-23T21:59:23.028Z,95198.69
2018-05-23T22:01:49.706Z,95195.14
2018-05-23T22:04:16.304Z,95194.02
2018-05-23T22:06:42.985Z,95196.96
2018-05-23T22:09:09.616Z,95194.55
2018-05-23T22:11:36.243Z,95197.42
2018-05-23T22:14:02.894Z,95212.14
2018-05-23T22:16:29.572Z,95204.93
2018-05-23T22:18:56.205Z,95207.59
2018-05-23T22:21:22.906Z,95216.10
2018-05-23T22:23:49.534Z,95211.77
2018-05-23T22:26:16.170Z,95211.93
2018-05-23T22:28:42.812Z,95211.17
2018-05-23T22:31:09.485Z,95209.45
2018-05-23T22:33:36.119Z,95202.75
2018-05-23T22:36:02.838Z,95208.53
2018-05-23T22:38:29.442Z,95203.59
2018-05-23T22:40:56.159Z,95199.97
2018-05-23T22:43:22.807Z,95197.32
2018-05-23T22:45:49.474Z,95207.34
2018-05-23T22:48:16.157Z,95198.83
2018-05-23T22:50:42.829Z,95199.09
2018-05-23T22:53:09.462Z,95195.84
2018-05-23T22:55:36.108Z,95187.87
2018-05-23T22:58:02.741Z,95197.70
2018-05-23T23:00:29.381Z,95190.27
2018-05-23T23:02:56.131Z,95188.00
2018-05-23T23:05:22.838Z,95190.03
2018-05-23T23:07:49.546Z,95183.83
2018-05-23T23:10:16.202Z,95189.70
2018-05-23T23:12:42.878Z,95196.39
2018-05-23T23:15:09.516Z,95198.41
2018-05-23T23:17:36.153Z,95189.39
2018-05-23T23:20:02.816Z,95196.52
2018-05-23T23:22:29.507Z,95195.00
2018-05-23T23:24:56.187Z,95194.13
2018-05-23T23:27:22.836Z,95192.39
2018-05-23T23:29:49.491Z,95193.37
2018-05-23T23:32:16.170Z,95188.22
2018-05-23T23:34:42.849Z,95181.14
2018-05-23T23:37:09.492Z,95177.64
2018-05-23T23:39:36.133Z,95173.94
2018-05-23T23:42:02.820Z,95175.70
2018-05-23T23:44:29.460Z,95168.46
2018-05-23T23:46:56.099Z,95168.94
2018-05-23T23:49:22.738Z,95171.08
2018-05-23T23:51:49.442Z,95174.48
2018-05-23T23:54:16.082Z,95166.77
2018-05-23T23:56:42.729Z,95170.32
2018-05-23T23:59:09.395Z,95159.86
